Time;durP1;ratioP1;P1;durP2;ratioP2;P2;SDS_P1;SDS_P2;PMS_P1;PMS_P2;Temp;Humidity;BMP_temperature;BMP_pressure;BME280_temperature;BME280_humidity;BME280_pressure;Samples;Min_cycle;Max_cycle;Signal;HPM_P1;HPM_P2
2022/04/03 00:01:16;;;;;;;260.30;72.80;;;0.30;99.90;;;-1.21;100.00;97400.81;5049891;28;20401;-73
2022/04/03 00:03:43;;;;;;;276.98;75.80;;;0.30;99.90;;;-1.22;100.00;97400.00;5050230;28;20394;-73
2022/04/03 00:06:09;;;;;;;280.45;78.47;;;0.20;99.90;;;-1.25;100.00;97402.13;5050140;28;20417;-73
2022/04/03 00:08:35;;;;;;;285.40;72.75;;;0.20;99.90;;;-1.26;100.00;97398.72;5050135;28;20401;-74
2022/04/03 00:11:01;;;;;;;275.85;74.00;;;0.20;99.90;;;-1.26;100.00;97405.69;5049589;28;20944;-73
2022/04/03 00:13:27;;;;;;;266.98;68.50;;;0.20;99.90;;;-1.26;100.00;97406.50;5050048;28;20436;-73
2022/04/03 00:15:55;;;;;;;268.67;68.25;;;0.20;99.90;;;-1.26;100.00;97403.09;5050043;28;20737;-73
2022/04/03 00:18:22;;;;;;;269.23;69.25;;;0.20;99.90;;;-1.29;100.00;97403.47;5050196;28;20416;-73
2022/04/03 00:20:49;;;;;;;288.40;76.25;;;0.20;99.90;;;-1.32;100.00;97402.03;5049462;28;20402;-73
2022/04/03 00:23:15;;;;;;;292.98;76.95;;;0.20;99.90;;;-1.33;100.00;97400.41;5049992;28;20481;-73
2022/04/03 00:25:41;;;;;;;274.70;69.57;;;0.20;99.90;;;-1.34;100.00;97396.19;5049936;28;20516;-73
2022/04/03 00:28:07;;;;;;;273.88;72.13;;;0.10;99.90;;;-1.32;100.00;97398.63;5050264;28;20433;-73
2022/04/03 00:30:33;;;;;;;273.80;68.60;;;0.20;99.90;;;-1.33;100.00;97402.19;5049667;28;20423;-73
2022/04/03 00:32:59;;;;;;;270.20;67.53;;;0.10;99.90;;;-1.35;100.00;97404.97;5050490;28;20417;-73
2022/04/03 00:35:25;;;;;;;284.50;76.67;;;0.10;99.90;;;-1.35;100.00;97402.38;5049902;28;20409;-73
2022/04/03 00:37:53;;;;;;;288.13;71.63;;;0.10;99.90;;;-1.37;100.00;97409.53;5049893;28;20409;-73
2022/04/03 00:40:23;;;;;;;290.42;72.63;;;0.10;99.90;;;-1.37;100.00;97401.75;5049309;28;20488;-73
2022/04/03 00:42:49;;;;;;;288.30;73.93;;;0.10;99.90;;;-1.36;100.00;97403.38;5049941;28;20459;-73
2022/04/03 00:45:16;;;;;;;275.23;68.38;;;0.10;99.90;;;-1.35;100.00;97404.16;5049721;28;20421;-73
2022/04/03 00:47:42;;;;;;;283.50;73.18;;;0.10;99.90;;;-1.33;100.00;97404.78;5049891;28;20407;-73
2022/04/03 00:50:10;;;;;;;263.58;71.55;;;0.20;99.90;;;-1.32;100.00;97409.00;5049178;28;20902;-73
2022/04/03 00:52:36;;;;;;;282.45;76.25;;;0.10;99.90;;;-1.31;100.00;97408.03;5049743;28;20397;-73
2022/04/03 00:55:05;;;;;;;309.65;78.38;;;0.20;99.90;;;-1.32;100.00;97412.41;5049801;28;20405;-73
2022/04/03 00:57:33;;;;;;;297.95;74.55;;;0.10;99.90;;;-1.33;100.00;97410.78;5049628;28;20409;-73
2022/04/03 00:59:59;;;;;;;262.73;68.95;;;0.10;99.90;;;-1.33;100.00;97408.19;5049622;28;20417;-73
2022/04/03 01:02:26;;;;;;;290.40;73.68;;;0.10;99.90;;;-1.32;100.00;97415.00;5049223;28;20416;-73
2022/04/03 01:04:51;;;;;;;296.73;78.28;;;0.20;99.90;;;-1.32;100.00;97411.59;5049672;28;20703;-73
2022/04/03 01:07:19;;;;;;;292.73;73.35;;;0.10;99.90;;;-1.34;100.00;97411.78;5049608;28;20409;-73
2022/04/03 01:09:45;;;;;;;342.23;83.40;;;0.10;99.90;;;-1.32;100.00;97414.19;5049461;28;20462;-73
2022/04/03 01:12:12;;;;;;;359.52;87.15;;;0.10;99.90;;;-1.34;100.00;97416.97;5050132;28;20413;-73
2022/04/03 01:14:42;;;;;;;312.13;77.32;;;0.10;99.90;;;-1.33;100.00;97418.59;5053251;28;20406;-73
2022/04/03 01:17:11;;;;;;;307.17;74.78;;;0.10;99.90;;;-1.32;100.00;97412.41;5053113;28;20492;-73
2022/04/03 01:19:37;;;;;;;343.40;79.57;;;0.20;99.90;;;-1.29;100.00;97419.06;5052931;28;20493;-73
2022/04/03 01:22:04;;;;;;;344.75;82.97;;;0.20;99.90;;;-1.29;100.00;97421.66;5052652;28;20402;-73
2022/04/03 01:24:30;;;;;;;344.50;81.10;;;0.20;99.90;;;-1.30;100.00;97413.06;5052900;28;20413;-73
2022/04/03 01:26:57;;;;;;;324.48;77.72;;;0.20;99.90;;;-1.30;100.00;97413.06;5052959;28;20402;-73
2022/04/03 01:29:24;;;;;;;351.42;82.57;;;0.20;99.90;;;-1.29;100.00;97419.06;5052810;28;20462;-73
2022/04/03 01:31:51;;;;;;;326.75;78.90;;;0.20;99.90;;;-1.30;100.00;97415.66;5052500;28;20393;-73
2022/04/03 01:34:18;;;;;;;323.95;79.45;;;0.20;99.90;;;-1.29;100.00;97414.69;5052940;28;20397;-73
2022/04/03 01:36:45;;;;;;;338.17;81.70;;;0.20;99.90;;;-1.29;100.00;97427.66;5052820;28;20402;-73
2022/04/03 01:39:11;;;;;;;297.63;77.57;;;0.20;99.90;;;-1.30;100.00;97426.03;5051386;28;20883;-73
2022/04/03 01:41:38;;;;;;;319.08;80.15;;;0.20;99.90;;;-1.30;100.00;97420.03;5052373;28;20412;-73
2022/04/03 01:44:06;;;;;;;306.30;77.57;;;0.20;99.90;;;-1.30;100.00;97420.84;5051419;28;20402;-73
2022/04/03 01:46:32;;;;;;;314.20;77.40;;;0.20;99.90;;;-1.30;100.00;97423.44;5052629;28;20429;-73
2022/04/03 01:48:58;;;;;;;275.53;72.90;;;0.20;99.90;;;-1.30;100.00;97420.84;5052477;28;20479;-73
2022/04/03 01:51:24;;;;;;;252.40;66.93;;;0.20;99.90;;;-1.29;100.00;97424.25;5052147;28;20887;-73
2022/04/03 01:53:50;;;;;;;254.17;66.03;;;0.20;99.90;;;-1.30;100.00;97420.84;5052366;28;20875;-73
2022/04/03 01:56:16;;;;;;;258.88;67.38;;;0.20;99.90;;;-1.29;100.00;97426.84;5052378;28;20497;-73
2022/04/03 01:58:42;;;;;;;258.70;61.33;;;0.20;99.90;;;-1.30;100.00;97420.03;5052329;28;20763;-73
2022/04/03 02:01:09;;;;;;;256.10;65.50;;;0.20;99.90;;;-1.28;100.00;97425.88;5051854;28;20412;-73
2022/04/03 02:03:35;;;;;;;229.02;60.47;;;0.20;99.90;;;-1.29;100.00;97425.06;5051019;28;20512;-73
2022/04/03 02:06:01;;;;;;;238.15;60.45;;;0.20;99.90;;;-1.28;100.00;97431.06;5052112;28;20564;-73
2022/04/03 02:08:27;;;;;;;274.80;66.80;;;0.20;99.90;;;-1.27;100.00;97428.25;5052243;28;20411;-73
2022/04/03 02:10:54;;;;;;;255.55;64.00;;;0.20;99.90;;;-1.27;100.00;97430.88;5051632;28;20817;-73
2022/04/03 02:13:20;;;;;;;256.50;61.73;;;0.20;99.90;;;-1.27;100.00;97428.25;5052252;28;20405;-73
2022/04/03 02:15:46;;;;;;;252.10;64.18;;;0.20;99.90;;;-1.26;100.00;97426.47;5052075;28;20429;-73
2022/04/03 02:18:13;;;;;;;270.75;67.15;;;0.20;99.90;;;-1.27;100.00;97424.84;5052068;28;20405;-73
2022/04/03 02:20:39;;;;;;;257.10;64.20;;;0.20;99.90;;;-1.26;100.00;97429.88;5051356;28;20398;-73
2022/04/03 02:23:06;;;;;;;225.93;60.30;;;0.20;99.90;;;-1.28;100.00;97425.88;5051935;28;20413;-73
2022/04/03 02:25:32;;;;;;;258.98;67.18;;;0.20;99.90;;;-1.27;100.00;97432.66;5051805;28;20414;-73
2022/04/03 02:27:59;;;;;;;322.88;75.22;;;0.20;99.90;;;-1.27;100.00;97432.66;5051931;28;20412;-73
2022/04/03 02:30:26;;;;;;;292.40;72.15;;;0.20;99.90;;;-1.27;100.00;97430.06;5051180;28;20447;-73
2022/04/03 02:32:53;;;;;;;287.98;71.70;;;0.20;99.90;;;-1.26;100.00;97439.47;5051839;28;20401;-73
2022/04/03 02:35:20;;;;;;;273.25;68.47;;;0.20;99.90;;;-1.27;100.00;97437.84;5051623;28;20394;-73
2022/04/03 02:37:46;;;;;;;309.50;77.07;;;0.20;99.90;;;-1.27;100.00;97437.84;5051629;28;20401;-73
2022/04/03 02:40:16;;;;;;;329.92;78.20;;;0.20;99.90;;;-1.28;100.00;97439.63;5051023;28;20759;-73
2022/04/03 02:42:43;;;;;;;305.88;75.85;;;0.20;99.90;;;-1.32;100.00;97435.78;5051713;28;20403;-73
2022/04/03 02:45:10;;;;;;;322.15;76.43;;;0.20;99.90;;;-1.31;100.00;97440.00;5051273;28;20420;-73
2022/04/03 02:47:36;;;;;;;330.90;81.20;;;0.20;99.90;;;-1.33;100.00;97449.75;5050242;28;20397;-73
2022/04/03 02:50:03;;;;;;;354.92;75.40;;;0.10;99.90;;;-1.32;100.00;97443.56;5051041;28;20398;-73
2022/04/03 02:52:31;;;;;;;295.02;72.13;;;0.10;99.90;;;-1.32;100.00;97442.75;5051012;28;20439;-73
2022/04/03 02:54:58;;;;;;;320.33;76.78;;;0.10;99.90;;;-1.32;100.00;97445.34;5051363;28;20397;-73
2022/04/03 02:57:24;;;;;;;304.73;76.60;;;0.10;99.90;;;-1.33;100.00;97454.94;5051413;28;20405;-73
2022/04/03 02:59:50;;;;;;;288.70;72.10;;;0.10;99.90;;;-1.35;100.00;97450.88;5051079;28;20412;-73
2022/04/03 03:02:16;;;;;;;253.05;64.97;;;0.10;99.90;;;-1.36;100.00;97447.50;5050720;28;20401;-73
2022/04/03 03:04:42;;;;;;;282.52;70.40;;;0.10;99.90;;;-1.36;100.00;97450.13;5051065;28;20447;-73
2022/04/03 03:07:09;;;;;;;272.88;66.97;;;0.10;99.90;;;-1.35;100.00;97445.69;5050914;28;20496;-74
2022/04/03 03:09:36;;;;;;;261.20;68.25;;;0.10;99.90;;;-1.36;100.00;97447.50;5050882;28;20444;-74
2022/04/03 03:12:05;;;;;;;321.35;74.38;;;0.10;99.90;;;-1.35;100.00;97440.50;5050667;28;20409;-72
2022/04/03 03:14:31;;;;;;;310.33;77.95;;;0.10;99.90;;;-1.39;100.00;97445.25;5050930;28;20405;-73
2022/04/03 03:16:57;;;;;;;303.40;77.25;;;0.10;99.90;;;-1.39;100.00;97444.44;5050889;28;20501;-72
2022/04/03 03:19:23;;;;;;;279.35;64.03;;;0.10;99.90;;;-1.40;100.00;97440.22;5050754;28;20812;-73
2022/04/03 03:21:49;;;;;;;263.67;61.53;;;0.10;99.90;;;-1.42;100.00;97437.00;5050312;28;20413;-72
2022/04/03 03:24:15;;;;;;;243.27;60.50;;;0.10;99.90;;;-1.42;100.00;97437.81;5050726;28;20414;-72
2022/04/03 03:26:42;;;;;;;242.25;58.30;;;0.10;99.90;;;-1.42;100.00;97443.00;5050698;28;20397;-74
2022/04/03 03:29:08;;;;;;;263.80;66.32;;;0.10;99.90;;;-1.41;100.00;97444.63;5050445;28;20830;-72
2022/04/03 03:31:34;;;;;;;281.80;71.32;;;0.10;99.90;;;-1.41;100.00;97446.41;5050193;28;20402;-72
2022/04/03 03:34:00;;;;;;;268.73;67.03;;;0.10;99.90;;;-1.42;100.00;97450.78;5050272;28;20444;-71
2022/04/03 03:36:26;;;;;;;262.95;64.28;;;0.10;99.90;;;-1.41;100.00;97449.81;5050560;28;20771;-72
2022/04/03 03:38:52;;;;;;;281.93;69.20;;;0.10;99.90;;;-1.40;100.00;97455.81;5050353;28;20899;-73
2022/04/03 03:41:18;;;;;;;279.00;67.70;;;0.10;99.90;;;-1.41;100.00;97455.00;5050074;28;20517;-73
2022/04/03 03:43:45;;;;;;;260.50;62.72;;;0.10;99.90;;;-1.40;100.00;97456.63;5050613;28;20459;-71
2022/04/03 03:46:11;;;;;;;275.23;67.03;;;0.10;99.90;;;-1.39;100.00;97447.03;5050280;28;20500;-73
2022/04/03 03:48:38;;;;;;;302.95;69.07;;;0.10;99.90;;;-1.39;100.00;97453.03;5050295;28;20405;-72
2022/04/03 03:51:04;;;;;;;260.05;66.07;;;0.10;99.90;;;-1.39;100.00;97462.63;5062647;22;20490;-74
2022/04/03 03:53:30;;;;;;;339.05;76.45;;;0.10;99.90;;;-1.40;100.00;97461.81;5050319;28;20907;-74
2022/04/03 03:55:57;;;;;;;304.58;69.75;;;0.10;99.90;;;-1.39;100.00;97465.22;5050349;28;20405;-74
2022/04/03 03:58:23;;;;;;;288.90;70.93;;;0.10;99.90;;;-1.40;100.00;97469.59;5050400;28;20503;-72
2022/04/03 04:00:51;;;;;;;301.00;68.80;;;0.10;99.90;;;-1.39;100.00;97465.22;5049704;28;20493;-73
2022/04/03 04:03:17;;;;;;;284.57;66.47;;;0.10;99.90;;;-1.40;100.00;97466.19;5050276;28;20413;-72
2022/04/03 04:05:43;;;;;;;296.92;73.00;;;0.10;99.90;;;-1.41;100.00;97470.56;5050182;28;20421;-74
2022/04/03 04:08:09;;;;;;;300.77;74.28;;;0.10;99.90;;;-1.42;100.00;97468.94;5050291;28;20401;-74
2022/04/03 04:10:36;;;;;;;275.48;66.97;;;0.10;99.90;;;-1.41;100.00;97472.34;5049689;28;20401;-73
2022/04/03 04:13:03;;;;;;;321.48;72.97;;;0.10;99.90;;;-1.40;100.00;97472.19;5050203;28;20759;-73
2022/04/03 04:15:30;;;;;;;338.77;75.45;;;0.10;99.90;;;-1.40;100.00;97469.59;5050196;28;20405;-73
2022/04/03 04:17:57;;;;;;;299.70;64.05;;;0.10;99.90;;;-1.41;100.00;97473.16;5050129;28;20405;-73
2022/04/03 04:20:23;;;;;;;283.95;69.95;;;0.10;99.90;;;-1.42;100.00;97474.16;5049515;28;21192;-74
2022/04/03 04:22:52;;;;;;;256.25;67.32;;;0.10;99.90;;;-1.43;100.00;97485.53;5050108;28;20393;-74
2022/04/03 04:25:19;;;;;;;267.27;69.72;;;0.00;99.90;;;-1.44;100.00;97475.31;5049935;28;21013;-73
2022/04/03 04:27:46;;;;;;;263.77;63.40;;;0.00;99.90;;;-1.45;100.00;97482.28;5050218;28;20404;-73
2022/04/03 04:30:13;;;;;;;276.73;66.07;;;0.00;99.90;;;-1.44;100.00;97481.31;5049512;28;20420;-73
2022/04/03 04:32:39;;;;;;;305.05;67.35;;;0.00;99.90;;;-1.43;100.00;97487.31;5049938;28;20404;-73
2022/04/03 04:35:08;;;;;;;268.85;68.45;;;0.00;99.90;;;-1.42;100.00;97491.50;5050027;28;20401;-73
2022/04/03 04:37:34;;;;;;;264.47;66.00;;;0.10;99.90;;;-1.43;100.00;97492.53;5049880;28;20397;-72
2022/04/03 04:40:00;;;;;;;256.20;64.23;;;0.00;99.90;;;-1.41;100.00;97485.34;5049775;28;20457;-73
2022/04/03 04:42:28;;;;;;;255.05;65.28;;;0.10;99.90;;;-1.41;100.00;97490.53;5049609;28;20394;-73
2022/04/03 04:44:54;;;;;;;272.23;62.42;;;0.10;99.90;;;-1.40;100.00;97495.56;5049822;28;20794;-73
2022/04/03 04:47:20;;;;;;;316.10;74.50;;;0.10;99.90;;;-1.39;100.00;97494.59;5052650;28;20797;-74
2022/04/03 04:49:46;;;;;;;284.00;70.05;;;0.10;99.90;;;-1.41;100.00;97496.53;5053488;28;20823;-73
2022/04/03 04:52:13;;;;;;;277.15;68.88;;;0.10;99.90;;;-1.41;100.00;97501.72;5053355;28;20484;-73
2022/04/03 04:54:39;;;;;;;279.83;69.18;;;0.10;99.90;;;-1.41;100.00;97496.53;5053644;28;20728;-74
2022/04/03 04:57:05;;;;;;;289.93;65.33;;;0.10;99.90;;;-1.41;100.00;97500.91;5053547;28;20408;-73
2022/04/03 04:59:31;;;;;;;287.65;68.38;;;0.10;99.90;;;-1.41;100.00;97500.91;5053448;28;20397;-74
2022/04/03 05:01:59;;;;;;;258.13;62.20;;;0.10;99.90;;;-1.41;100.00;97506.09;5053021;28;20505;-74
2022/04/03 05:04:25;;;;;;;274.02;67.45;;;0.10;99.90;;;-1.40;100.00;97507.72;5053491;28;20401;-74
2022/04/03 05:06:52;;;;;;;325.95;71.85;;;0.10;99.90;;;-1.37;100.00;97510.00;5053433;28;20400;-74
2022/04/03 05:09:20;;;;;;;255.07;63.87;;;0.10;99.90;;;-1.37;100.00;97512.59;5053326;28;20405;-74
2022/04/03 05:11:47;;;;;;;343.52;72.07;;;0.10;99.90;;;-1.34;100.00;97513.03;5053061;28;20397;-75
2022/04/03 05:14:13;;;;;;;291.23;72.45;;;0.10;99.90;;;-1.35;100.00;97526.19;5052044;28;20496;-73
2022/04/03 05:16:40;;;;;;;343.27;76.68;;;0.10;99.90;;;-1.36;100.00;97516.81;5053130;28;20400;-73
2022/04/03 05:19:07;;;;;;;276.10;68.77;;;0.10;99.90;;;-1.36;100.00;97520.22;5053245;28;20405;-72
2022/04/03 05:21:33;;;;;;;320.98;71.60;;;0.10;99.90;;;-1.34;100.00;97526.00;5052620;28;20429;-72
2022/04/03 05:23:59;;;;;;;272.90;61.33;;;0.10;99.90;;;-1.32;100.00;97526.66;5053050;28;20827;-72
2022/04/03 05:26:27;;;;;;;249.93;64.28;;;0.10;99.90;;;-1.30;100.00;97532.50;5053125;28;20421;-73
2022/04/03 05:28:52;;;;;;;289.70;63.45;;;0.20;99.90;;;-1.28;100.00;97529.72;5051556;28;20417;-72
2022/04/03 05:31:18;;;;;;;299.67;65.40;;;0.20;99.90;;;-1.29;100.00;97528.94;5052314;28;20456;-72
2022/04/03 05:33:45;;;;;;;258.40;64.07;;;0.20;99.90;;;-1.28;100.00;97532.34;5052872;28;20759;-73
2022/04/03 05:36:11;;;;;;;304.40;72.67;;;0.20;99.90;;;-1.25;100.00;97540.56;5051956;28;20520;-73
2022/04/03 05:38:37;;;;;;;315.30;71.10;;;0.20;99.90;;;-1.25;100.00;97543.16;5051102;28;20475;-74
2022/04/03 05:41:03;;;;;;;254.02;62.83;;;0.20;99.90;;;-1.23;100.00;97541.22;5063877;28;20773;-74
2022/04/03 05:43:30;;;;;;;252.55;63.83;;;0.20;99.90;;;-1.22;100.00;97540.25;5052592;28;20413;-73
2022/04/03 05:45:56;;;;;;;252.05;63.13;;;0.20;99.90;;;-1.20;100.00;97540.84;5052561;28;20449;-73
2022/04/03 05:48:22;;;;;;;271.02;67.30;;;0.20;99.90;;;-1.17;100.00;97542.31;5068108;28;20448;-75
2022/04/03 05:50:50;;;;;;;249.20;61.75;;;0.30;99.90;;;-1.14;100.00;97538.56;5051925;28;20444;-73
2022/04/03 05:53:16;;;;;;;247.95;62.30;;;0.30;99.90;;;-1.10;100.00;97548.41;5052424;28;20401;-73
2022/04/03 05:55:42;;;;;;;240.43;63.15;;;0.30;99.90;;;-1.08;100.00;97550.84;5052534;28;20463;-74
2022/04/03 05:58:08;;;;;;;241.97;59.43;;;0.40;99.90;;;-1.03;100.00;97546.75;5051336;28;20409;-75
2022/04/03 06:00:35;;;;;;;209.27;54.97;;;0.40;99.90;;;-1.01;100.00;97555.19;5051650;28;20492;-75
2022/04/03 06:03:02;;;;;;;227.82;56.65;;;0.40;99.90;;;-0.97;100.00;97558.22;5052347;28;20401;-75
2022/04/03 06:05:31;;;;;;;207.13;54.95;;;0.50;99.90;;;-0.96;100.00;97560.66;5052352;28;20413;-75
2022/04/03 06:07:57;;;;;;;244.00;61.03;;;0.50;99.90;;;-0.95;100.00;97564.06;5052309;28;20429;-76
2022/04/03 06:10:25;;;;;;;219.52;55.28;;;0.50;99.90;;;-0.92;100.00;97564.53;5051730;28;20952;-76
2022/04/03 06:12:57;;;;;;;207.27;53.13;;;0.50;99.90;;;-0.90;100.00;97565.16;5052173;28;20397;-76
2022/04/03 06:15:26;;;;;;;203.32;51.58;;;0.50;99.90;;;-0.87;100.00;97569.19;5052246;28;20413;-79
2022/04/03 06:17:54;;;;;;;198.90;50.65;;;0.50;99.90;;;-0.84;100.00;97571.47;5052252;28;20401;-75
2022/04/03 06:20:21;;;;;;;220.60;53.58;;;0.60;99.90;;;-0.84;100.00;97572.28;5051693;28;20421;-73
2022/04/03 06:22:47;;;;;;;191.43;49.60;;;0.60;99.90;;;-0.80;100.00;97570.91;5052178;28;20404;-76
2022/04/03 06:25:14;;;;;;;174.40;47.22;;;0.60;99.90;;;-0.77;100.00;97571.56;5049514;28;20926;-76
2022/04/03 06:27:41;;;;;;;176.80;47.55;;;0.70;99.90;;;-0.74;100.00;97566.81;5051726;28;20458;-76
2022/04/03 06:30:08;;;;;;;170.95;46.13;;;0.70;99.90;;;-0.71;100.00;97571.66;5051610;28;20401;-76
2022/04/03 06:32:34;;;;;;;172.77;45.08;;;0.70;99.90;;;-0.68;100.00;97586.91;5051717;28;20420;-76
2022/04/03 06:35:02;;;;;;;139.82;41.92;;;0.70;99.90;;;-0.64;100.00;97584.75;5051838;28;20403;-76
2022/04/03 06:37:28;;;;;;;145.20;42.05;;;0.70;99.90;;;-0.59;100.00;97587.63;5051769;28;20490;-76
2022/04/03 06:39:53;;;;;;;170.27;45.28;;;0.80;99.90;;;-0.54;100.00;97586.16;5051644;28;20397;-74
2022/04/03 06:42:19;;;;;;;161.07;45.08;;;0.80;99.90;;;-0.49;100.00;97585.59;5051321;28;20756;-75
2022/04/03 06:44:45;;;;;;;156.35;43.58;;;0.90;99.90;;;-0.45;100.00;97597.25;5051674;28;20397;-76
2022/04/03 06:47:11;;;;;;;129.60;38.33;;;0.90;99.90;;;-0.40;100.00;97594.97;5047857;28;20491;-73
2022/04/03 06:49:40;;;;;;;115.73;36.20;;;1.00;99.90;;;-0.33;100.00;97595.88;5047262;28;20950;-74
2022/04/03 06:52:08;;;;;;;140.32;38.80;;;1.00;99.90;;;-0.27;100.00;97602.16;5040039;28;20395;-74
2022/04/03 06:54:35;;;;;;;109.57;35.15;;;1.10;99.90;;;-0.24;100.00;97602.63;5040581;28;20431;-74
2022/04/03 06:57:01;;;;;;;103.30;33.30;;;1.10;99.90;;;-0.18;100.00;97604.50;5041855;28;20397;-74
2022/04/03 06:59:29;;;;;;;105.93;34.97;;;1.20;99.90;;;-0.14;100.00;97607.53;5040146;28;20740;-75
2022/04/03 07:01:55;;;;;;;104.20;32.30;;;1.20;99.90;;;-0.08;100.00;97612.88;5039864;28;20405;-74
2022/04/03 07:04:21;;;;;;;112.55;36.28;;;1.30;99.90;;;-0.01;100.00;97610.34;5049733;28;20401;-73
2022/04/03 07:06:47;;;;;;;108.50;35.20;;;1.30;99.90;;;0.11;100.00;97610.69;5050456;28;20817;-75
2022/04/03 07:09:14;;;;;;;109.90;35.15;;;1.40;99.90;;;0.19;100.00;97608.81;5049823;28;20497;-75
2022/04/03 07:11:40;;;;;;;107.57;33.13;;;1.50;99.90;;;0.31;100.00;97619.56;5049887;28;20874;-76
2022/04/03 07:14:06;;;;;;;98.77;31.23;;;1.60;99.90;;;0.39;100.00;97617.69;5050407;28;20432;-74
2022/04/03 07:16:33;;;;;;;97.75;32.25;;;1.70;99.90;;;0.47;100.00;97618.56;5050867;28;20806;-76
2022/04/03 07:18:58;;;;;;;107.43;31.90;;;1.70;99.90;;;0.50;100.00;97620.84;5050620;28;20411;-74
2022/04/03 07:21:24;;;;;;;106.20;33.30;;;1.80;99.90;;;0.51;100.00;97615.44;5049689;28;20401;-73
2022/04/03 07:23:50;;;;;;;112.07;31.95;;;1.80;99.90;;;0.51;100.00;97617.25;5048973;28;20855;-75
2022/04/03 07:26:18;;;;;;;121.35;34.33;;;1.80;99.90;;;0.48;100.00;97620.19;5049165;28;20418;-75
2022/04/03 07:28:45;;;;;;;102.40;32.72;;;1.80;99.90;;;0.43;100.00;97628.56;5049886;28;20902;-74
2022/04/03 07:31:11;;;;;;;138.73;41.03;;;1.80;99.90;;;0.33;100.00;97621.03;5049547;28;20486;-74
2022/04/03 07:33:37;;;;;;;114.93;33.95;;;1.70;99.90;;;0.41;100.00;97629.72;5050391;28;20467;-75
2022/04/03 07:36:04;;;;;;;121.40;34.15;;;1.70;99.90;;;0.51;100.00;97636.28;5046219;28;20401;-76
2022/04/03 07:38:30;;;;;;;110.22;35.05;;;1.80;99.90;;;0.67;100.00;97640.50;5047238;28;20910;-76
2022/04/03 07:40:56;;;;;;;92.50;30.77;;;1.90;99.90;;;0.86;100.00;97644.31;5049652;28;20408;-76
2022/04/03 07:43:25;;;;;;;67.20;24.27;;;2.10;99.90;;;1.07;100.00;97644.31;5050489;28;20460;-76
2022/04/03 07:45:51;;;;;;;60.67;22.20;;;2.30;99.90;;;1.24;100.00;97650.94;5050338;28;20413;-74
2022/04/03 07:48:17;;;;;;;45.35;19.40;;;2.50;99.90;;;1.40;100.00;97645.47;5050552;28;20404;-74
2022/04/03 07:50:43;;;;;;;44.20;17.90;;;2.60;99.90;;;1.54;100.00;97652.44;5049831;28;20444;-76
2022/04/03 07:53:09;;;;;;;46.58;18.92;;;2.80;99.90;;;1.69;100.00;97664.59;5050411;28;20401;-75
2022/04/03 07:55:35;;;;;;;54.05;19.40;;;2.90;99.90;;;1.76;100.00;97657.63;5050194;28;21103;-75
2022/04/03 07:58:01;;;;;;;42.83;18.00;;;3.00;99.90;;;1.83;100.00;97666.31;5050235;28;21007;-75
2022/04/03 08:00:29;;;;;;;39.00;17.33;;;3.10;99.90;;;1.92;100.00;97670.41;5049741;28;20942;-74
2022/04/03 08:02:55;;;;;;;35.92;16.33;;;3.20;99.90;;;1.97;100.00;97665.41;5050001;28;20409;-76
2022/04/03 08:05:21;;;;;;;47.30;19.00;;;3.20;99.90;;;1.92;100.00;97673.00;5050223;28;20413;-74
2022/04/03 08:07:48;;;;;;;46.58;17.83;;;3.20;99.90;;;1.98;100.00;97669.63;5050092;28;20394;-75
2022/04/03 08:10:16;;;;;;;39.25;17.20;;;3.20;99.90;;;2.08;100.00;97675.34;5049038;28;20819;-76
2022/04/03 08:12:43;;;;;;;39.05;17.60;;;3.30;99.90;;;2.15;100.00;97678.81;5040609;28;20421;-74
2022/04/03 08:15:11;;;;;;;44.05;18.75;;;3.40;99.90;;;2.15;100.00;97678.81;5046089;28;20405;-76
2022/04/03 08:17:39;;;;;;;36.10;15.80;;;3.30;99.90;;;2.32;100.00;97681.94;5048844;28;20397;-76
2022/04/03 08:20:10;;;;;;;49.63;18.00;;;3.50;99.90;;;2.44;100.00;97679.59;5050224;28;20401;-77
2022/04/03 08:22:47;;;;;;;41.42;17.35;;;3.60;99.90;;;2.56;100.00;97681.47;5053526;28;20397;-78
2022/04/03 08:25:15;;;;;;;41.33;16.80;;;3.70;99.90;;;2.55;100.00;97685.09;5049472;28;20542;-75
2022/04/03 08:27:43;;;;;;;35.92;15.48;;;3.80;99.90;;;2.52;100.00;97688.09;5049744;28;20393;-76
2022/04/03 08:30:13;;;;;;;54.67;18.85;;;3.80;99.90;;;2.27;100.00;97687.72;5047276;28;20870;-75
2022/04/03 08:32:41;;;;;;;35.87;15.57;;;3.50;99.90;;;2.36;100.00;97684.97;5050399;28;20406;-76
2022/04/03 08:35:08;;;;;;;38.85;16.15;;;3.60;99.90;;;2.50;100.00;97681.44;5049631;28;20408;-76
2022/04/03 08:37:34;;;;;;;39.05;15.23;;;3.70;99.90;;;2.56;100.00;97685.88;5050803;28;20953;-75
2022/04/03 08:40:00;;;;;;;32.15;13.90;;;3.80;99.90;;;2.58;100.00;97689.13;5052977;28;20409;-76
2022/04/03 08:42:27;;;;;;;30.70;13.73;;;3.80;99.90;;;2.61;100.00;97686.13;5050029;28;20401;-75
2022/04/03 08:44:53;;;;;;;31.67;13.77;;;3.80;99.90;;;2.64;100.00;97699.59;5053147;28;20407;-75
2022/04/03 08:47:20;;;;;;;31.13;14.23;;;3.90;99.90;;;2.54;100.00;97696.53;5050723;28;20420;-75
2022/04/03 08:49:47;;;;;;;31.02;14.02;;;3.80;99.90;;;2.77;100.00;97698.06;5047390;28;20962;-74
2022/04/03 08:52:14;;;;;;;32.58;13.88;;;4.00;99.90;;;2.83;100.00;97700.72;5049701;28;20420;-75
2022/04/03 08:54:40;;;;;;;31.33;14.10;;;4.00;99.90;;;3.10;100.00;97699.00;5049808;28;20460;-76
2022/04/03 08:57:07;;;;;;;26.45;13.15;;;4.20;99.90;;;3.14;100.00;97699.44;5053018;28;20400;-75
2022/04/03 08:59:34;;;;;;;23.17;12.30;;;4.30;99.90;;;3.30;100.00;97707.75;5053070;28;20398;-75
2022/04/03 09:02:00;;;;;;;26.65;12.45;;;4.40;99.90;;;3.17;100.00;97699.84;5052268;28;20405;-75
2022/04/03 09:04:27;;;;;;;22.00;11.40;;;4.40;99.90;;;3.31;100.00;97704.09;5051182;28;20461;-75
2022/04/03 09:06:56;;;;;;;28.13;12.77;;;4.50;99.90;;;3.31;100.00;97703.28;5050378;28;20409;-75
2022/04/03 09:09:22;;;;;;;24.90;11.55;;;4.40;99.90;;;3.31;100.00;97696.25;5052658;28;20971;-76
2022/04/03 09:12:08;;;;;;;23.40;11.13;;;4.50;99.90;;;3.32;100.00;97704.91;5052127;28;20460;-75
2022/04/03 09:14:35;;;;;;;32.25;13.65;;;4.50;99.90;;;3.16;100.00;97700.81;5049692;28;21002;-76
2022/04/03 09:17:01;;;;;;;25.02;12.32;;;4.40;99.90;;;3.19;100.00;97699.66;5049867;28;20914;-76
2022/04/03 09:19:33;;;;;;;28.02;12.55;;;4.40;99.90;;;3.17;100.00;97704.25;5046081;28;20489;-76
2022/04/03 09:22:01;;;;;;;23.38;10.32;;;4.40;99.90;;;3.29;100.00;97700.91;5048647;28;20420;-74
2022/04/03 09:24:27;;;;;;;19.77;10.13;;;4.50;99.90;;;3.43;100.00;97705.16;5053015;28;20405;-75
2022/04/03 09:26:59;;;;;;;16.80;9.30;;;4.60;99.90;;;3.72;100.00;97708.44;5053139;28;20450;-75
2022/04/03 09:29:25;;;;;;;15.57;9.13;;;4.80;99.90;;;4.06;100.00;97704.84;5053056;28;20532;-75
2022/04/03 09:31:59;;;;;;;11.73;8.07;;;5.10;99.90;;;4.42;100.00;97704.41;5051442;28;20436;-76
2022/04/03 09:34:27;;;;;;;12.87;7.83;;;5.40;99.90;;;4.70;100.00;97704.94;5052827;28;20405;-76
2022/04/03 09:36:59;;;;;;;11.30;7.20;;;5.70;99.90;;;4.76;100.00;97705.94;5052969;28;20439;-76
2022/04/03 09:39:28;;;;;;;11.65;7.10;;;5.80;99.90;;;4.90;100.00;97710.13;5052467;28;20487;-75
2022/04/03 09:41:58;;;;;;;11.43;6.93;;;6.00;99.90;;;5.09;100.00;97714.50;5049998;28;20417;-77
2022/04/03 09:44:29;;;;;;;10.80;6.28;;;6.10;99.90;;;5.38;100.00;97706.09;5052602;28;20589;-77
2022/04/03 09:47:30;;;;;;;10.00;5.93;;;6.40;99.90;;;5.75;100.00;97704.47;5051475;28;20970;-78
2022/04/03 09:49:58;;;;;;;7.55;5.05;;;6.70;99.90;;;5.94;100.00;97699.31;5010809;22;20513;-77
2022/04/03 09:52:41;;;;;;;9.90;5.72;;;6.90;99.90;;;5.96;100.00;97708.59;5036811;28;20393;-78
2022/04/03 09:55:16;;;;;;;6.90;5.00;;;7.00;99.90;;;5.93;100.00;97702.97;5052405;28;20404;-78
2022/04/03 09:57:42;;;;;;;7.55;5.10;;;7.00;99.90;;;5.70;100.00;97706.94;5050188;28;20413;-77
2022/04/03 10:00:09;;;;;;;12.65;5.97;;;6.80;99.90;;;5.27;100.00;97708.56;5040006;28;20402;-75
2022/04/03 10:02:36;;;;;;;10.17;6.33;;;6.50;99.90;;;4.80;100.00;97710.56;5032599;28;20395;-76